Aigaion — SYMC — position and weather

sailwx.info

Track history (hours):
 
Tides and Currents Weather Stations Pressure Air Temp Water Temp Dewpoint Dewpoint Depression Visibility Wind Speed Wind Dir Waves Ship Positions

Aigaion

Last reported at 2015-May-25 20:33 UTC. Time now 2015-May-26 05:46 UTC.
Position N 38°51' E 118°10'.

Length 289 m; draft 17.8 m.

Type: Cargo ship. MMSI: 240174000.

Date/timePositionNaut miles runAvg speedWind from/ knotsBaromVisibWave heightAir tempDewpointWater temp
2015-May-25 20:33N 38°51' E 118°10'0 0.2
2015-May-25 19:09N 38°51' E 118°11'0 0.1
2015-May-25 18:28N 38°50' E 118°11'0 0.0
2015-May-25 15:33N 38°51' E 118°11'0 0.1
2015-May-25 12:21N 38°51' E 118°10'0 0.0
2015-May-25 09:27N 38°51' E 118°10'1 0.9
2015-May-25 08:33N 38°51' E 118°11'29 7.2
2015-May-25 04:30N 38°49' E 118°49'8 8.3
2015-May-25 03:28N 38°49' E 118°60'8 8.3
2015-May-25 02:33N 38°49' E 119°09'10 8.3
2015-May-25 01:21N 38°50' E 119°22'7 8.7
2015-May-25 00:33N 38°50' E 119°31'9 8.9
2015-May-24 23:33N 38°49' E 119°42'9 9.2
2015-May-24 22:33N 38°49' E 119°54'12 9.3
2015-May-24 21:18N 38°46' E 120°09'8 9.6
2015-May-24 20:29N 38°43' E 120°18'10 9.5
2015-May-24 19:28N 38°41' E 120°30'37 8.7
2015-May-24 15:14N 38°29' E 121°15'9 8.7
2015-May-24 14:09N 38°25' E 121°26'5 8.9
2015-May-24 13:32N 38°24' E 121°33'9 9.2
2015-May-24 12:33N 38°22' E 121°44'9 9.3
2015-May-24 11:33N 38°18' E 121°55'9 9.4
2015-May-24 10:33N 38°14' E 122°05'9 9.2
2015-May-24 09:33N 38°12' E 122°16'9 9.3
2015-May-24 08:33N 38°09' E 122°28'9 9.2
2015-May-24 07:33N 38°07' E 122°39'9 9.1
2015-May-24 06:33N 38°04' E 122°50'9 9.2
2015-May-24 05:33N 37°60' E 123°01'9 8.8
2015-May-24 04:33N 37°58' E 123°11'9 9.5
2015-May-24 03:33N 37°51' E 123°20'1010.0
2015-May-24 02:32N 37°44' E 123°29'1010.4
2015-May-24 01:32N 37°35' E 123°35'1010.2
2015-May-24 00:33N 37°26' E 123°40'10 9.6
2015-May-23 23:33N 37°17' E 123°45'10 9.7
2015-May-23 22:33N 37°08' E 123°50'11 9.6
2015-May-23 21:24N 36°57' E 123°52'8 9.3
2015-May-23 20:33N 36°49' E 123°51'9 9.3
2015-May-23 19:33N 36°40' E 123°49'9 9.1
2015-May-23 18:33N 36°32' E 123°54'9 8.8
2015-May-23 17:31N 36°25' E 124°01'30 8.8
2015-May-23 14:07N 35°55' E 124°02'18 8.9
2015-May-23 12:07N 35°37' E 124°02'221 9.8
2015-May-22 13:31N 31°56' E 124°02'8 7.8
2015-May-22 12:30N 31°48' E 124°03'15 7.8
2015-May-22 10:31N 31°33' E 124°04'8 7.9
2015-May-22 09:33N 31°25' E 124°04'9 7.9
2015-May-22 08:26N 31°16' E 124°06'8 8.6
2015-May-22 07:33N 31°09' E 124°07'32 9.5
2015-May-22 04:13N 30°37' E 124°03'  
Track history (hours):
 
Tides and Currents Weather Stations Pressure Air Temp Water Temp Dewpoint Dewpoint Depression Visibility Wind Speed Wind Dir Waves Ship Positions

Aigaion

Last reported at 2015-May-25 20:33 UTC. Time now 2015-May-26 05:46 UTC.
Position N 38°51' E 118°10'.

Length 289 m; draft 17.8 m.

Type: Cargo ship. MMSI: 240174000.

Date/timePositionNaut miles runAvg speedWind from/ knotsBaromVisibWave heightAir tempDewpointWater temp
2015-May-25 20:33N 38°51' E 118°10'0 0.2
2015-May-25 19:09N 38°51' E 118°11'0 0.1
2015-May-25 18:28N 38°50' E 118°11'0 0.0
2015-May-25 15:33N 38°51' E 118°11'0 0.1
2015-May-25 12:21N 38°51' E 118°10'0 0.0
2015-May-25 09:27N 38°51' E 118°10'1 0.9
2015-May-25 08:33N 38°51' E 118°11'29 7.2
2015-May-25 04:30N 38°49' E 118°49'8 8.3
2015-May-25 03:28N 38°49' E 118°60'8 8.3
2015-May-25 02:33N 38°49' E 119°09'10 8.3
2015-May-25 01:21N 38°50' E 119°22'7 8.7
2015-May-25 00:33N 38°50' E 119°31'9 8.9
2015-May-24 23:33N 38°49' E 119°42'9 9.2
2015-May-24 22:33N 38°49' E 119°54'12 9.3
2015-May-24 21:18N 38°46' E 120°09'8 9.6
2015-May-24 20:29N 38°43' E 120°18'10 9.5
2015-May-24 19:28N 38°41' E 120°30'37 8.7
2015-May-24 15:14N 38°29' E 121°15'9 8.7
2015-May-24 14:09N 38°25' E 121°26'5 8.9
2015-May-24 13:32N 38°24' E 121°33'9 9.2
2015-May-24 12:33N 38°22' E 121°44'9 9.3
2015-May-24 11:33N 38°18' E 121°55'9 9.4
2015-May-24 10:33N 38°14' E 122°05'9 9.2
2015-May-24 09:33N 38°12' E 122°16'9 9.3
2015-May-24 08:33N 38°09' E 122°28'9 9.2
2015-May-24 07:33N 38°07' E 122°39'9 9.1
2015-May-24 06:33N 38°04' E 122°50'9 9.2
2015-May-24 05:33N 37°60' E 123°01'9 8.8
2015-May-24 04:33N 37°58' E 123°11'9 9.5
2015-May-24 03:33N 37°51' E 123°20'1010.0
2015-May-24 02:32N 37°44' E 123°29'1010.4
2015-May-24 01:32N 37°35' E 123°35'1010.2
2015-May-24 00:33N 37°26' E 123°40'10 9.6
2015-May-23 23:33N 37°17' E 123°45'10 9.7
2015-May-23 22:33N 37°08' E 123°50'11 9.6
2015-May-23 21:24N 36°57' E 123°52'8 9.3
2015-May-23 20:33N 36°49' E 123°51'9 9.3
2015-May-23 19:33N 36°40' E 123°49'9 9.1
2015-May-23 18:33N 36°32' E 123°54'9 8.8
2015-May-23 17:31N 36°25' E 124°01'30 8.8
2015-May-23 14:07N 35°55' E 124°02'18 8.9
2015-May-23 12:07N 35°37' E 124°02'221 9.8
2015-May-22 13:31N 31°56' E 124°02'8 7.8
2015-May-22 12:30N 31°48' E 124°03'15 7.8
2015-May-22 10:31N 31°33' E 124°04'8 7.9
2015-May-22 09:33N 31°25' E 124°04'9 7.9
2015-May-22 08:26N 31°16' E 124°06'8 8.6
2015-May-22 07:33N 31°09' E 124°07'32 9.5
2015-May-22 04:13N 30°37' E 124°03'  

Dump ship's entire track history